sensor_id;sensor_type;location;lat;lon;timestamp;P1;durP1;ratioP1;P2;durP2;ratioP2
32748;SDS011;19119;52.474;13.710;2022-10-16T00:01:14;5.22;;;3.45;;
32748;SDS011;19119;52.474;13.710;2022-10-16T00:03:41;4.63;;;2.83;;
32748;SDS011;19119;52.474;13.710;2022-10-16T00:06:08;3.88;;;2.35;;
32748;SDS011;19119;52.474;13.710;2022-10-16T00:08:35;3.15;;;2.50;;
32748;SDS011;19119;52.474;13.710;2022-10-16T00:11:02;3.28;;;2.58;;
32748;SDS011;19119;52.474;13.710;2022-10-16T00:13:36;5.78;;;2.53;;
32748;SDS011;19119;52.474;13.710;2022-10-16T00:16:04;3.33;;;2.25;;
32748;SDS011;19119;52.474;13.710;2022-10-16T00:18:30;3.75;;;2.35;;
32748;SDS011;19119;52.474;13.710;2022-10-16T00:21:01;3.92;;;2.15;;
32748;SDS011;19119;52.474;13.710;2022-10-16T00:23:46;4.47;;;2.38;;
32748;SDS011;19119;52.474;13.710;2022-10-16T00:26:15;2.72;;;2.08;;
32748;SDS011;19119;52.474;13.710;2022-10-16T00:28:42;3.75;;;2.20;;
32748;SDS011;19119;52.474;13.710;2022-10-16T00:31:10;4.50;;;2.30;;
32748;SDS011;19119;52.474;13.710;2022-10-16T00:33:37;3.20;;;1.90;;
32748;SDS011;19119;52.474;13.710;2022-10-16T00:36:04;3.15;;;2.10;;
32748;SDS011;19119;52.474;13.710;2022-10-16T00:38:31;2.88;;;1.92;;
32748;SDS011;19119;52.474;13.710;2022-10-16T00:40:57;3.50;;;2.00;;
32748;SDS011;19119;52.474;13.710;2022-10-16T00:46:26;2.88;;;1.88;;
32748;SDS011;19119;52.474;13.710;2022-10-16T00:49:10;3.75;;;2.15;;
32748;SDS011;19119;52.474;13.710;2022-10-16T00:51:41;2.45;;;1.88;;
32748;SDS011;19119;52.474;13.710;2022-10-16T00:54:13;3.13;;;1.98;;
32748;SDS011;19119;52.474;13.710;2022-10-16T00:56:41;2.95;;;1.90;;
32748;SDS011;19119;52.474;13.710;2022-10-16T00:59:11;3.78;;;2.00;;
32748;SDS011;19119;52.474;13.710;2022-10-16T01:01:41;4.30;;;1.90;;
32748;SDS011;19119;52.474;13.710;2022-10-16T01:04:06;2.40;;;1.67;;
32748;SDS011;19119;52.474;13.710;2022-10-16T01:06:41;2.83;;;1.80;;
32748;SDS011;19119;52.474;13.710;2022-10-16T01:09:51;4.03;;;1.75;;
32748;SDS011;19119;52.474;13.710;2022-10-16T01:12:16;4.55;;;1.80;;
32748;SDS011;19119;52.474;13.710;2022-10-16T01:15:12;3.13;;;1.52;;
32748;SDS011;19119;52.474;13.710;2022-10-16T01:18:00;2.55;;;1.77;;
32748;SDS011;19119;52.474;13.710;2022-10-16T01:20:35;3.80;;;1.98;;
32748;SDS011;19119;52.474;13.710;2022-10-16T01:28:24;2.35;;;1.60;;
32748;SDS011;19119;52.474;13.710;2022-10-16T01:30:55;3.83;;;1.52;;
32748;SDS011;19119;52.474;13.710;2022-10-16T01:33:24;2.40;;;1.58;;
32748;SDS011;19119;52.474;13.710;2022-10-16T01:36:12;6.25;;;1.92;;
32748;SDS011;19119;52.474;13.710;2022-10-16T01:38:39;2.88;;;1.85;;
32748;SDS011;19119;52.474;13.710;2022-10-16T01:41:19;3.60;;;1.60;;
32748;SDS011;19119;52.474;13.710;2022-10-16T01:43:51;2.33;;;1.65;;
32748;SDS011;19119;52.474;13.710;2022-10-16T01:46:30;2.72;;;1.77;;
32748;SDS011;19119;52.474;13.710;2022-10-16T01:48:57;2.97;;;1.70;;
32748;SDS011;19119;52.474;13.710;2022-10-16T01:51:24;2.03;;;1.50;;
32748;SDS011;19119;52.474;13.710;2022-10-16T01:53:53;2.75;;;1.83;;
32748;SDS011;19119;52.474;13.710;2022-10-16T01:56:21;1.98;;;1.60;;
32748;SDS011;19119;52.474;13.710;2022-10-16T01:58:51;2.65;;;1.38;;
32748;SDS011;19119;52.474;13.710;2022-10-16T02:01:21;3.28;;;2.15;;
32748;SDS011;19119;52.474;13.710;2022-10-16T02:03:50;3.08;;;1.58;;
32748;SDS011;19119;52.474;13.710;2022-10-16T02:06:18;2.90;;;1.50;;
32748;SDS011;19119;52.474;13.710;2022-10-16T02:08:44;2.63;;;1.83;;
32748;SDS011;19119;52.474;13.710;2022-10-16T02:11:10;1.73;;;1.20;;
32748;SDS011;19119;52.474;13.710;2022-10-16T02:13:51;4.00;;;1.67;;
32748;SDS011;19119;52.474;13.710;2022-10-16T02:16:44;2.55;;;1.83;;
32748;SDS011;19119;52.474;13.710;2022-10-16T02:19:14;2.60;;;1.60;;
32748;SDS011;19119;52.474;13.710;2022-10-16T02:24:27;1.75;;;1.20;;
32748;SDS011;19119;52.474;13.710;2022-10-16T02:27:07;1.75;;;1.33;;
32748;SDS011;19119;52.474;13.710;2022-10-16T02:29:42;2.40;;;1.40;;
32748;SDS011;19119;52.474;13.710;2022-10-16T02:32:15;4.00;;;1.60;;
32748;SDS011;19119;52.474;13.710;2022-10-16T02:34:45;3.20;;;1.40;;
32748;SDS011;19119;52.474;13.710;2022-10-16T02:37:13;2.67;;;1.65;;
32748;SDS011;19119;52.474;13.710;2022-10-16T02:39:40;3.53;;;1.50;;
32748;SDS011;19119;52.474;13.710;2022-10-16T02:42:09;1.77;;;1.20;;
32748;SDS011;19119;52.474;13.710;2022-10-16T02:44:36;4.03;;;1.67;;
32748;SDS011;19119;52.474;13.710;2022-10-16T02:47:02;1.63;;;1.17;;
32748;SDS011;19119;52.474;13.710;2022-10-16T02:49:27;4.43;;;1.35;;
32748;SDS011;19119;52.474;13.710;2022-10-16T02:51:53;3.63;;;1.73;;
32748;SDS011;19119;52.474;13.710;2022-10-16T02:54:19;1.67;;;1.20;;
32748;SDS011;19119;52.474;13.710;2022-10-16T02:56:44;1.75;;;1.35;;
32748;SDS011;19119;52.474;13.710;2022-10-16T02:59:10;2.65;;;1.30;;
32748;SDS011;19119;52.474;13.710;2022-10-16T03:01:35;2.42;;;1.50;;
32748;SDS011;19119;52.474;13.710;2022-10-16T03:04:01;1.60;;;1.20;;
32748;SDS011;19119;52.474;13.710;2022-10-16T03:06:27;1.88;;;1.27;;
32748;SDS011;19119;52.474;13.710;2022-10-16T03:08:52;2.70;;;1.15;;
32748;SDS011;19119;52.474;13.710;2022-10-16T03:11:18;2.33;;;0.95;;
32748;SDS011;19119;52.474;13.710;2022-10-16T03:13:43;2.40;;;1.40;;
32748;SDS011;19119;52.474;13.710;2022-10-16T03:16:09;3.40;;;1.40;;
32748;SDS011;19119;52.474;13.710;2022-10-16T03:18:34;1.80;;;1.30;;
32748;SDS011;19119;52.474;13.710;2022-10-16T03:21:00;1.85;;;1.35;;
32748;SDS011;19119;52.474;13.710;2022-10-16T03:23:26;4.22;;;1.40;;
32748;SDS011;19119;52.474;13.710;2022-10-16T03:25:52;1.55;;;1.17;;
32748;SDS011;19119;52.474;13.710;2022-10-16T03:28:18;1.60;;;1.25;;
32748;SDS011;19119;52.474;13.710;2022-10-16T03:30:44;1.75;;;1.30;;
32748;SDS011;19119;52.474;13.710;2022-10-16T03:33:09;2.05;;;1.40;;
32748;SDS011;19119;52.474;13.710;2022-10-16T03:35:35;3.92;;;1.58;;
32748;SDS011;19119;52.474;13.710;2022-10-16T03:38:00;2.28;;;1.25;;
32748;SDS011;19119;52.474;13.710;2022-10-16T03:40:26;2.40;;;1.25;;
32748;SDS011;19119;52.474;13.710;2022-10-16T03:42:52;2.85;;;1.70;;
32748;SDS011;19119;52.474;13.710;2022-10-16T03:45:20;2.13;;;1.30;;
32748;SDS011;19119;52.474;13.710;2022-10-16T03:47:45;8.57;;;1.52;;
32748;SDS011;19119;52.474;13.710;2022-10-16T03:50:12;2.47;;;1.13;;
32748;SDS011;19119;52.474;13.710;2022-10-16T03:52:37;1.88;;;1.30;;
32748;SDS011;19119;52.474;13.710;2022-10-16T03:55:03;1.90;;;1.27;;
32748;SDS011;19119;52.474;13.710;2022-10-16T03:57:29;3.22;;;1.35;;
32748;SDS011;19119;52.474;13.710;2022-10-16T03:59:54;3.67;;;1.33;;
32748;SDS011;19119;52.474;13.710;2022-10-16T04:02:20;2.72;;;1.40;;
32748;SDS011;19119;52.474;13.710;2022-10-16T04:04:45;2.38;;;1.42;;
32748;SDS011;19119;52.474;13.710;2022-10-16T04:07:11;2.08;;;1.40;;
32748;SDS011;19119;52.474;13.710;2022-10-16T04:09:37;1.70;;;1.10;;
32748;SDS011;19119;52.474;13.710;2022-10-16T04:12:02;2.17;;;1.40;;
32748;SDS011;19119;52.474;13.710;2022-10-16T04:14:28;1.52;;;1.30;;
32748;SDS011;19119;52.474;13.710;2022-10-16T04:16:53;2.60;;;1.33;;
32748;SDS011;19119;52.474;13.710;2022-10-16T04:19:19;3.35;;;1.42;;
32748;SDS011;19119;52.474;13.710;2022-10-16T04:21:44;2.35;;;1.40;;
32748;SDS011;19119;52.474;13.710;2022-10-16T04:24:10;1.88;;;1.08;;
32748;SDS011;19119;52.474;13.710;2022-10-16T04:26:36;3.40;;;1.23;;
32748;SDS011;19119;52.474;13.710;2022-10-16T04:29:02;2.13;;;1.27;;
32748;SDS011;19119;52.474;13.710;2022-10-16T04:31:27;1.95;;;1.25;;
32748;SDS011;19119;52.474;13.710;2022-10-16T04:33:53;2.15;;;1.38;;
32748;SDS011;19119;52.474;13.710;2022-10-16T04:36:18;1.98;;;1.27;;
32748;SDS011;19119;52.474;13.710;2022-10-16T04:38:44;4.07;;;1.10;;
32748;SDS011;19119;52.474;13.710;2022-10-16T04:41:09;3.90;;;1.20;;
32748;SDS011;19119;52.474;13.710;2022-10-16T04:43:35;2.45;;;1.30;;
32748;SDS011;19119;52.474;13.710;2022-10-16T04:46:00;2.50;;;1.50;;
32748;SDS011;19119;52.474;13.710;2022-10-16T04:48:26;1.85;;;1.30;;
32748;SDS011;19119;52.474;13.710;2022-10-16T04:50:52;3.47;;;1.50;;
32748;SDS011;19119;52.474;13.710;2022-10-16T04:53:17;1.63;;;1.20;;
32748;SDS011;19119;52.474;13.710;2022-10-16T04:55:43;3.00;;;1.33;;
32748;SDS011;19119;52.474;13.710;2022-10-16T04:58:09;1.95;;;1.20;;
32748;SDS011;19119;52.474;13.710;2022-10-16T05:00:34;3.35;;;1.10;;
32748;SDS011;19119;52.474;13.710;2022-10-16T05:03:01;1.92;;;1.10;;
32748;SDS011;19119;52.474;13.710;2022-10-16T05:05:30;2.00;;;1.15;;
32748;SDS011;19119;52.474;13.710;2022-10-16T05:07:56;1.90;;;1.30;;
32748;SDS011;19119;52.474;13.710;2022-10-16T05:10:21;2.60;;;1.67;;
32748;SDS011;19119;52.474;13.710;2022-10-16T05:12:47;2.67;;;1.55;;
32748;SDS011;19119;52.474;13.710;2022-10-16T05:15:13;1.95;;;1.30;;
32748;SDS011;19119;52.474;13.710;2022-10-16T05:17:38;2.28;;;1.45;;
32748;SDS011;19119;52.474;13.710;2022-10-16T05:20:04;1.73;;;1.20;;
32748;SDS011;19119;52.474;13.710;2022-10-16T05:22:30;2.35;;;1.38;;
32748;SDS011;19119;52.474;13.710;2022-10-16T05:24:55;1.85;;;1.10;;
32748;SDS011;19119;52.474;13.710;2022-10-16T05:27:21;1.60;;;1.00;;
32748;SDS011;19119;52.474;13.710;2022-10-16T05:29:47;3.50;;;1.25;;
32748;SDS011;19119;52.474;13.710;2022-10-16T05:32:13;2.40;;;1.50;;
32748;SDS011;19119;52.474;13.710;2022-10-16T05:34:40;1.98;;;1.10;;
32748;SDS011;19119;52.474;13.710;2022-10-16T05:37:05;2.15;;;1.42;;
32748;SDS011;19119;52.474;13.710;2022-10-16T05:39:31;2.28;;;1.42;;
32748;SDS011;19119;52.474;13.710;2022-10-16T05:41:56;2.05;;;1.35;;
32748;SDS011;19119;52.474;13.710;2022-10-16T05:44:22;1.95;;;1.27;;
32748;SDS011;19119;52.474;13.710;2022-10-16T05:46:47;3.13;;;2.15;;
32748;SDS011;19119;52.474;13.710;2022-10-16T05:49:13;4.38;;;2.20;;
32748;SDS011;19119;52.474;13.710;2022-10-16T05:51:39;3.35;;;2.40;;
32748;SDS011;19119;52.474;13.710;2022-10-16T05:54:04;5.03;;;2.45;;
32748;SDS011;19119;52.474;13.710;2022-10-16T05:56:30;4.00;;;1.85;;
32748;SDS011;19119;52.474;13.710;2022-10-16T05:58:55;6.10;;;1.58;;
32748;SDS011;19119;52.474;13.710;2022-10-16T06:01:21;4.47;;;1.73;;
32748;SDS011;19119;52.474;13.710;2022-10-16T06:03:49;3.70;;;1.88;;
32748;SDS011;19119;52.474;13.710;2022-10-16T06:06:19;2.72;;;1.70;;
32748;SDS011;19119;52.474;13.710;2022-10-16T06:08:46;2.00;;;1.42;;
32748;SDS011;19119;52.474;13.710;2022-10-16T06:11:14;1.88;;;1.08;;
32748;SDS011;19119;52.474;13.710;2022-10-16T06:13:42;2.78;;;1.45;;
32748;SDS011;19119;52.474;13.710;2022-10-16T06:16:08;2.28;;;1.50;;
32748;SDS011;19119;52.474;13.710;2022-10-16T06:18:34;2.97;;;1.67;;
32748;SDS011;19119;52.474;13.710;2022-10-16T06:21:06;4.60;;;1.73;;
32748;SDS011;19119;52.474;13.710;2022-10-16T06:23:36;3.13;;;1.55;;
32748;SDS011;19119;52.474;13.710;2022-10-16T06:26:05;2.83;;;2.10;;
32748;SDS011;19119;52.474;13.710;2022-10-16T06:28:32;4.20;;;1.75;;
32748;SDS011;19119;52.474;13.710;2022-10-16T06:31:02;4.13;;;1.95;;
32748;SDS011;19119;52.474;13.710;2022-10-16T06:33:28;4.95;;;2.00;;
32748;SDS011;19119;52.474;13.710;2022-10-16T06:35:59;2.88;;;1.70;;
32748;SDS011;19119;52.474;13.710;2022-10-16T06:38:27;4.65;;;1.80;;
32748;SDS011;19119;52.474;13.710;2022-10-16T06:40:53;5.90;;;2.17;;
32748;SDS011;19119;52.474;13.710;2022-10-16T06:43:18;4.28;;;2.00;;
32748;SDS011;19119;52.474;13.710;2022-10-16T06:45:49;3.72;;;2.13;;
32748;SDS011;19119;52.474;13.710;2022-10-16T06:48:22;2.90;;;2.08;;
32748;SDS011;19119;52.474;13.710;2022-10-16T06:51:11;6.28;;;1.70;;
32748;SDS011;19119;52.474;13.710;2022-10-16T06:53:39;2.60;;;1.38;;
32748;SDS011;19119;52.474;13.710;2022-10-16T06:56:12;3.45;;;1.60;;
32748;SDS011;19119;52.474;13.710;2022-10-16T06:58:43;2.78;;;1.85;;
32748;SDS011;19119;52.474;13.710;2022-10-16T07:01:09;2.10;;;1.50;;
32748;SDS011;19119;52.474;13.710;2022-10-16T07:03:36;2.13;;;1.50;;
32748;SDS011;19119;52.474;13.710;2022-10-16T07:06:03;2.20;;;1.55;;
32748;SDS011;19119;52.474;13.710;2022-10-16T07:08:37;5.85;;;1.65;;
32748;SDS011;19119;52.474;13.710;2022-10-16T07:11:05;3.33;;;1.50;;
32748;SDS011;19119;52.474;13.710;2022-10-16T07:13:33;3.50;;;1.20;;
32748;SDS011;19119;52.474;13.710;2022-10-16T07:16:10;2.40;;;1.50;;
32748;SDS011;19119;52.474;13.710;2022-10-16T07:18:37;1.88;;;1.30;;
32748;SDS011;19119;52.474;13.710;2022-10-16T07:21:12;2.25;;;1.60;;
32748;SDS011;19119;52.474;13.710;2022-10-16T07:23:39;5.00;;;1.80;;
32748;SDS011;19119;52.474;13.710;2022-10-16T07:26:05;1.92;;;1.50;;
32748;SDS011;19119;52.474;13.710;2022-10-16T07:28:33;2.78;;;1.70;;
32748;SDS011;19119;52.474;13.710;2022-10-16T07:31:02;3.03;;;1.95;;
32748;SDS011;19119;52.474;13.710;2022-10-16T07:33:33;2.05;;;1.52;;
32748;SDS011;19119;52.474;13.710;2022-10-16T07:35:59;4.05;;;2.28;;
32748;SDS011;19119;52.474;13.710;2022-10-16T07:38:25;2.97;;;1.75;;
32748;SDS011;19119;52.474;13.710;2022-10-16T07:40:57;3.85;;;1.77;;
32748;SDS011;19119;52.474;13.710;2022-10-16T07:43:24;3.35;;;1.80;;
32748;SDS011;19119;52.474;13.710;2022-10-16T07:45:50;2.25;;;1.50;;
32748;SDS011;19119;52.474;13.710;2022-10-16T07:48:16;2.00;;;1.27;;
32748;SDS011;19119;52.474;13.710;2022-10-16T07:50:43;2.67;;;1.48;;
32748;SDS011;19119;52.474;13.710;2022-10-16T07:53:09;1.30;;;1.00;;
32748;SDS011;19119;52.474;13.710;2022-10-16T07:55:38;1.77;;;1.10;;
32748;SDS011;19119;52.474;13.710;2022-10-16T07:58:04;1.75;;;1.20;;
32748;SDS011;19119;52.474;13.710;2022-10-16T08:00:30;1.58;;;1.20;;
32748;SDS011;19119;52.474;13.710;2022-10-16T08:02:56;2.47;;;1.35;;
32748;SDS011;19119;52.474;13.710;2022-10-16T08:05:25;4.15;;;1.48;;
32748;SDS011;19119;52.474;13.710;2022-10-16T08:07:52;2.15;;;1.55;;
32748;SDS011;19119;52.474;13.710;2022-10-16T08:10:18;1.90;;;1.40;;
32748;SDS011;19119;52.474;13.710;2022-10-16T08:12:45;3.22;;;1.20;;
32748;SDS011;19119;52.474;13.710;2022-10-16T08:15:10;2.83;;;1.10;;
32748;SDS011;19119;52.474;13.710;2022-10-16T08:17:36;1.67;;;1.13;;
32748;SDS011;19119;52.474;13.710;2022-10-16T08:20:02;2.70;;;1.02;;
32748;SDS011;19119;52.474;13.710;2022-10-16T08:22:28;3.35;;;1.02;;
32748;SDS011;19119;52.474;13.710;2022-10-16T08:24:53;2.72;;;1.45;;
32748;SDS011;19119;52.474;13.710;2022-10-16T08:27:19;1.80;;;1.05;;
32748;SDS011;19119;52.474;13.710;2022-10-16T08:29:44;1.45;;;0.90;;
32748;SDS011;19119;52.474;13.710;2022-10-16T08:32:10;1.90;;;0.85;;
32748;SDS011;19119;52.474;13.710;2022-10-16T08:34:35;2.53;;;0.88;;
32748;SDS011;19119;52.474;13.710;2022-10-16T08:37:01;1.40;;;0.73;;
32748;SDS011;19119;52.474;13.710;2022-10-16T08:39:27;1.20;;;0.80;;
32748;SDS011;19119;52.474;13.710;2022-10-16T08:47:23;1.58;;;0.80;;
32748;SDS011;19119;52.474;13.710;2022-10-16T08:50:11;1.20;;;0.77;;
32748;SDS011;19119;52.474;13.710;2022-10-16T08:52:39;1.00;;;0.70;;
32748;SDS011;19119;52.474;13.710;2022-10-16T08:55:08;1.80;;;0.93;;
32748;SDS011;19119;52.474;13.710;2022-10-16T08:57:49;2.88;;;0.95;;
32748;SDS011;19119;52.474;13.710;2022-10-16T09:00:15;0.95;;;0.75;;
32748;SDS011;19119;52.474;13.710;2022-10-16T09:09:01;1.15;;;0.68;;
32748;SDS011;19119;52.474;13.710;2022-10-16T09:17:17;1.50;;;0.77;;
32748;SDS011;19119;52.474;13.710;2022-10-16T09:22:47;1.17;;;0.70;;
32748;SDS011;19119;52.474;13.710;2022-10-16T09:25:14;2.30;;;0.73;;
32748;SDS011;19119;52.474;13.710;2022-10-16T09:27:42;2.10;;;0.60;;
32748;SDS011;19119;52.474;13.710;2022-10-16T09:30:11;0.90;;;0.63;;
32748;SDS011;19119;52.474;13.710;2022-10-16T09:32:41;0.90;;;0.70;;
32748;SDS011;19119;52.474;13.710;2022-10-16T09:38:03;1.02;;;0.63;;
32748;SDS011;19119;52.474;13.710;2022-10-16T09:46:00;1.02;;;0.70;;
32748;SDS011;19119;52.474;13.710;2022-10-16T09:48:36;0.77;;;0.60;;
32748;SDS011;19119;52.474;13.710;2022-10-16T09:51:05;0.77;;;0.70;;
32748;SDS011;19119;52.474;13.710;2022-10-16T09:53:40;2.92;;;0.77;;
32748;SDS011;19119;52.474;13.710;2022-10-16T09:56:09;1.45;;;0.80;;
32748;SDS011;19119;52.474;13.710;2022-10-16T09:58:53;0.90;;;0.50;;
32748;SDS011;19119;52.474;13.710;2022-10-16T10:01:21;1.10;;;0.70;;
32748;SDS011;19119;52.474;13.710;2022-10-16T10:03:55;1.05;;;0.77;;
32748;SDS011;19119;52.474;13.710;2022-10-16T10:06:27;1.17;;;0.50;;
32748;SDS011;19119;52.474;13.710;2022-10-16T10:09:05;2.30;;;0.70;;
32748;SDS011;19119;52.474;13.710;2022-10-16T10:11:56;1.00;;;0.65;;
32748;SDS011;19119;52.474;13.710;2022-10-16T10:14:38;1.77;;;1.00;;
32748;SDS011;19119;52.474;13.710;2022-10-16T10:17:13;2.03;;;0.60;;
32748;SDS011;19119;52.474;13.710;2022-10-16T10:22:29;1.17;;;0.60;;
32748;SDS011;19119;52.474;13.710;2022-10-16T10:38:16;0.95;;;0.50;;
32748;SDS011;19119;52.474;13.710;2022-10-16T10:43:32;0.60;;;0.60;;
32748;SDS011;19119;52.474;13.710;2022-10-16T10:46:14;1.70;;;0.60;;
32748;SDS011;19119;52.474;13.710;2022-10-16T11:00:06;0.95;;;0.50;;
32748;SDS011;19119;52.474;13.710;2022-10-16T11:08:26;1.60;;;0.60;;
32748;SDS011;19119;52.474;13.710;2022-10-16T11:10:58;1.13;;;0.60;;
32748;SDS011;19119;52.474;13.710;2022-10-16T11:15:59;1.13;;;0.40;;
32748;SDS011;19119;52.474;13.710;2022-10-16T11:18:52;4.05;;;0.50;;
32748;SDS011;19119;52.474;13.710;2022-10-16T11:21:30;1.23;;;0.60;;
32748;SDS011;19119;52.474;13.710;2022-10-16T11:24:04;0.70;;;0.52;;
32748;SDS011;19119;52.474;13.710;2022-10-16T11:26:39;1.25;;;0.57;;
32748;SDS011;19119;52.474;13.710;2022-10-16T11:29:10;1.13;;;0.63;;
32748;SDS011;19119;52.474;13.710;2022-10-16T11:31:44;1.17;;;0.50;;
32748;SDS011;19119;52.474;13.710;2022-10-16T11:34:32;0.50;;;0.43;;
32748;SDS011;19119;52.474;13.710;2022-10-16T11:39:44;0.52;;;0.47;;
32748;SDS011;19119;52.474;13.710;2022-10-16T11:42:13;0.75;;;0.50;;
32748;SDS011;19119;52.474;13.710;2022-10-16T11:47:45;1.17;;;0.50;;
32748;SDS011;19119;52.474;13.710;2022-10-16T11:50:33;1.08;;;0.47;;
32748;SDS011;19119;52.474;13.710;2022-10-16T11:56:17;2.47;;;0.60;;
32748;SDS011;19119;52.474;13.710;2022-10-16T11:59:00;1.90;;;0.30;;
32748;SDS011;19119;52.474;13.710;2022-10-16T12:04:11;1.98;;;0.40;;
32748;SDS011;19119;52.474;13.710;2022-10-16T12:06:43;0.98;;;0.50;;
32748;SDS011;19119;52.474;13.710;2022-10-16T12:09:15;0.80;;;0.50;;
32748;SDS011;19119;52.474;13.710;2022-10-16T12:11:41;0.70;;;0.50;;
32748;SDS011;19119;52.474;13.710;2022-10-16T12:14:18;4.50;;;0.47;;
32748;SDS011;19119;52.474;13.710;2022-10-16T12:16:58;0.50;;;0.30;;
32748;SDS011;19119;52.474;13.710;2022-10-16T12:19:27;0.52;;;0.50;;
32748;SDS011;19119;52.474;13.710;2022-10-16T12:21:57;0.68;;;0.50;;
32748;SDS011;19119;52.474;13.710;2022-10-16T12:24:36;0.50;;;0.40;;
32748;SDS011;19119;52.474;13.710;2022-10-16T12:27:06;2.83;;;0.40;;
32748;SDS011;19119;52.474;13.710;2022-10-16T12:29:49;0.45;;;0.40;;
32748;SDS011;19119;52.474;13.710;2022-10-16T12:32:37;3.28;;;0.60;;
32748;SDS011;19119;52.474;13.710;2022-10-16T12:35:04;0.30;;;0.30;;
32748;SDS011;19119;52.474;13.710;2022-10-16T12:37:41;1.13;;;0.50;;
32748;SDS011;19119;52.474;13.710;2022-10-16T12:40:14;0.63;;;0.40;;
32748;SDS011;19119;52.474;13.710;2022-10-16T12:42:52;0.40;;;0.30;;
32748;SDS011;19119;52.474;13.710;2022-10-16T12:45:23;0.57;;;0.40;;
32748;SDS011;19119;52.474;13.710;2022-10-16T12:47:58;1.13;;;0.40;;
32748;SDS011;19119;52.474;13.710;2022-10-16T12:53:03;0.40;;;0.40;;
32748;SDS011;19119;52.474;13.710;2022-10-16T12:55:48;0.73;;;0.38;;
32748;SDS011;19119;52.474;13.710;2022-10-16T12:58:44;2.13;;;0.30;;
32748;SDS011;19119;52.474;13.710;2022-10-16T13:01:25;0.65;;;0.40;;
32748;SDS011;19119;52.474;13.710;2022-10-16T13:06:20;1.73;;;0.50;;
32748;SDS011;19119;52.474;13.710;2022-10-16T13:11:51;3.47;;;2.88;;
32748;SDS011;19119;52.474;13.710;2022-10-16T13:20:36;0.25;;;0.20;;
32748;SDS011;19119;52.474;13.710;2022-10-16T13:23:25;3.70;;;0.50;;
32748;SDS011;19119;52.474;13.710;2022-10-16T13:26:14;1.42;;;0.40;;
32748;SDS011;19119;52.474;13.710;2022-10-16T13:28:48;0.60;;;0.40;;
32748;SDS011;19119;52.474;13.710;2022-10-16T13:31:18;0.30;;;0.30;;
32748;SDS011;19119;52.474;13.710;2022-10-16T13:36:18;2.17;;;0.70;;
32748;SDS011;19119;52.474;13.710;2022-10-16T13:39:09;0.90;;;0.30;;
32748;SDS011;19119;52.474;13.710;2022-10-16T13:41:42;0.68;;;0.43;;
32748;SDS011;19119;52.474;13.710;2022-10-16T13:44:11;0.95;;;0.50;;
32748;SDS011;19119;52.474;13.710;2022-10-16T13:46:40;0.80;;;0.50;;
32748;SDS011;19119;52.474;13.710;2022-10-16T13:49:12;0.88;;;0.50;;
32748;SDS011;19119;52.474;13.710;2022-10-16T13:51:39;0.85;;;0.40;;
32748;SDS011;19119;52.474;13.710;2022-10-16T13:54:05;0.60;;;0.43;;
32748;SDS011;19119;52.474;13.710;2022-10-16T13:56:34;0.35;;;0.35;;
32748;SDS011;19119;52.474;13.710;2022-10-16T13:59:06;1.60;;;0.30;;
32748;SDS011;19119;52.474;13.710;2022-10-16T14:01:48;1.50;;;0.35;;
32748;SDS011;19119;52.474;13.710;2022-10-16T14:04:16;0.47;;;0.30;;
32748;SDS011;19119;52.474;13.710;2022-10-16T14:06:43;0.38;;;0.32;;
32748;SDS011;19119;52.474;13.710;2022-10-16T14:09:17;2.22;;;0.50;;
32748;SDS011;19119;52.474;13.710;2022-10-16T14:11:49;0.55;;;0.30;;
32748;SDS011;19119;52.474;13.710;2022-10-16T14:14:19;1.15;;;0.40;;
32748;SDS011;19119;52.474;13.710;2022-10-16T14:16:45;0.57;;;0.40;;
32748;SDS011;19119;52.474;13.710;2022-10-16T14:19:29;1.95;;;0.50;;
32748;SDS011;19119;52.474;13.710;2022-10-16T14:21:56;0.40;;;0.30;;
32748;SDS011;19119;52.474;13.710;2022-10-16T14:24:34;1.42;;;0.45;;
32748;SDS011;19119;52.474;13.710;2022-10-16T14:27:00;0.43;;;0.40;;
32748;SDS011;19119;52.474;13.710;2022-10-16T14:29:26;0.60;;;0.40;;
32748;SDS011;19119;52.474;13.710;2022-10-16T14:32:05;0.50;;;0.32;;
32748;SDS011;19119;52.474;13.710;2022-10-16T14:34:52;0.90;;;0.40;;
32748;SDS011;19119;52.474;13.710;2022-10-16T14:37:26;1.15;;;0.52;;
32748;SDS011;19119;52.474;13.710;2022-10-16T14:39:54;0.93;;;0.60;;
32748;SDS011;19119;52.474;13.710;2022-10-16T14:42:21;0.70;;;0.50;;
32748;SDS011;19119;52.474;13.710;2022-10-16T14:44:50;0.63;;;0.40;;
32748;SDS011;19119;52.474;13.710;2022-10-16T14:47:21;0.68;;;0.50;;
32748;SDS011;19119;52.474;13.710;2022-10-16T14:49:51;2.28;;;0.30;;
32748;SDS011;19119;52.474;13.710;2022-10-16T14:52:18;0.73;;;0.43;;
32748;SDS011;19119;52.474;13.710;2022-10-16T14:54:43;0.70;;;0.40;;
32748;SDS011;19119;52.474;13.710;2022-10-16T14:57:15;1.10;;;0.30;;
32748;SDS011;19119;52.474;13.710;2022-10-16T14:59:43;0.65;;;0.40;;
32748;SDS011;19119;52.474;13.710;2022-10-16T15:04:58;0.95;;;0.47;;
32748;SDS011;19119;52.474;13.710;2022-10-16T15:07:40;0.55;;;0.40;;
32748;SDS011;19119;52.474;13.710;2022-10-16T15:10:06;1.02;;;0.60;;
32748;SDS011;19119;52.474;13.710;2022-10-16T15:12:32;1.25;;;0.50;;
32748;SDS011;19119;52.474;13.710;2022-10-16T15:14:58;0.80;;;0.40;;
32748;SDS011;19119;52.474;13.710;2022-10-16T15:17:23;0.75;;;0.45;;
32748;SDS011;19119;52.474;13.710;2022-10-16T15:19:49;1.13;;;0.60;;
32748;SDS011;19119;52.474;13.710;2022-10-16T15:22:16;2.05;;;0.50;;
32748;SDS011;19119;52.474;13.710;2022-10-16T15:24:42;2.50;;;0.57;;
32748;SDS011;19119;52.474;13.710;2022-10-16T15:27:07;1.42;;;0.73;;
32748;SDS011;19119;52.474;13.710;2022-10-16T15:29:33;0.50;;;0.40;;
32748;SDS011;19119;52.474;13.710;2022-10-16T15:31:58;0.85;;;0.45;;
32748;SDS011;19119;52.474;13.710;2022-10-16T15:34:24;0.90;;;0.50;;
32748;SDS011;19119;52.474;13.710;2022-10-16T15:36:49;2.83;;;0.70;;
32748;SDS011;19119;52.474;13.710;2022-10-16T15:39:16;0.85;;;0.50;;
32748;SDS011;19119;52.474;13.710;2022-10-16T15:41:44;2.22;;;1.35;;
32748;SDS011;19119;52.474;13.710;2022-10-16T15:44:15;1.60;;;0.70;;
32748;SDS011;19119;52.474;13.710;2022-10-16T15:46:41;2.47;;;0.90;;
32748;SDS011;19119;52.474;13.710;2022-10-16T15:49:07;1.80;;;0.77;;
32748;SDS011;19119;52.474;13.710;2022-10-16T15:51:34;1.65;;;0.80;;
32748;SDS011;19119;52.474;13.710;2022-10-16T15:54:03;1.23;;;0.80;;
32748;SDS011;19119;52.474;13.710;2022-10-16T15:56:29;2.67;;;1.10;;
32748;SDS011;19119;52.474;13.710;2022-10-16T15:58:57;1.35;;;1.23;;
32748;SDS011;19119;52.474;13.710;2022-10-16T16:01:23;2.40;;;1.65;;
32748;SDS011;19119;52.474;13.710;2022-10-16T16:03:52;2.83;;;1.20;;
32748;SDS011;19119;52.474;13.710;2022-10-16T16:06:18;3.00;;;1.30;;
32748;SDS011;19119;52.474;13.710;2022-10-16T16:08:44;2.85;;;1.15;;
32748;SDS011;19119;52.474;13.710;2022-10-16T16:11:10;3.38;;;1.63;;
32748;SDS011;19119;52.474;13.710;2022-10-16T16:13:38;3.63;;;1.58;;
32748;SDS011;19119;52.474;13.710;2022-10-16T16:16:07;4.43;;;2.00;;
32748;SDS011;19119;52.474;13.710;2022-10-16T16:18:34;4.20;;;1.83;;
32748;SDS011;19119;52.474;13.710;2022-10-16T16:21:00;4.78;;;1.90;;
32748;SDS011;19119;52.474;13.710;2022-10-16T16:23:26;2.80;;;1.70;;
32748;SDS011;19119;52.474;13.710;2022-10-16T16:26:09;4.75;;;2.38;;
32748;SDS011;19119;52.474;13.710;2022-10-16T16:28:38;3.80;;;2.05;;
32748;SDS011;19119;52.474;13.710;2022-10-16T16:31:04;4.07;;;1.70;;
32748;SDS011;19119;52.474;13.710;2022-10-16T16:33:30;2.38;;;1.20;;
32748;SDS011;19119;52.474;13.710;2022-10-16T16:35:59;1.83;;;1.10;;
32748;SDS011;19119;52.474;13.710;2022-10-16T16:38:27;2.78;;;1.30;;